createdAt,value
2019-05-05T00:02:37.004Z,98519.84
2019-05-05T00:05:44.409Z,98511.72
2019-05-05T00:08:50.294Z,98517.39
2019-05-05T00:12:18.317Z,98513.03
2019-05-05T00:15:41.651Z,98513.03
2019-05-05T00:18:47.577Z,98517.08
2019-05-05T00:21:55.131Z,98529.34
2019-05-05T00:25:01.454Z,98534.92
2019-05-05T00:28:07.222Z,98547.34
2019-05-05T00:31:15.044Z,98553.02
2019-05-05T00:34:20.961Z,98557.94
2019-05-05T00:37:27.872Z,98555.94
2019-05-05T00:40:35.458Z,98544.98
2019-05-05T00:43:42.072Z,98545.77
2019-05-05T00:47:05.935Z,98553.92
2019-05-05T00:50:16.706Z,98543.50
2019-05-05T00:53:24.961Z,98532.97
2019-05-05T00:56:30.300Z,98531.77
2019-05-05T00:59:36.724Z,98531.16
2019-05-05T01:02:45.687Z,98525.08
2019-05-05T01:06:06.347Z,98531.58
2019-05-05T01:09:16.688Z,98522.58
2019-05-05T01:12:24.319Z,98513.35
2019-05-05T01:15:30.190Z,98509.41
2019-05-05T01:18:38.038Z,98509.28
2019-05-05T01:21:45.410Z,98517.70
2019-05-05T01:24:51.635Z,98511.62
2019-05-05T01:27:57.363Z,98516.59
2019-05-05T01:31:06.191Z,98515.45
2019-05-05T01:34:36.855Z,98515.23
2019-05-05T01:37:49.176Z,98503.94
2019-05-05T01:41:14.731Z,98500.31
2019-05-05T01:44:24.548Z,98499.30
2019-05-05T01:47:29.756Z,98504.16
2019-05-05T01:50:36.687Z,98506.19
2019-05-05T01:53:44.251Z,98511.45
2019-05-05T01:56:52.380Z,98503.05
2019-05-05T01:59:58.725Z,98504.64
2019-05-05T02:03:05.443Z,98510.52
2019-05-05T02:06:11.107Z,98507.91
2019-05-05T02:09:17.727Z,98510.11
2019-05-05T02:12:24.666Z,98515.88
2019-05-05T02:15:30.983Z,98507.78
2019-05-05T02:18:37.769Z,98501.10
2019-05-05T02:21:45.335Z,98497.27
2019-05-05T02:24:51.684Z,98501.21
2019-05-05T02:27:57.464Z,98489.77
2019-05-05T02:31:36.079Z,98489.84
2019-05-05T02:34:49.008Z,98485.52
2019-05-05T02:37:56.091Z,98476.95
2019-05-05T02:41:05.066Z,98481.20
2019-05-05T02:44:10.872Z,98475.13
2019-05-05T02:47:41.472Z,98470.15
2019-05-05T02:51:01.226Z,98472.18
2019-05-05T02:54:05.075Z,98475.63
2019-05-05T02:57:13.504Z,98467.72
2019-05-05T03:00:50.342Z,98463.59
2019-05-05T03:03:57.543Z,98470.86
2019-05-05T03:07:06.646Z,98468.05
2019-05-05T03:10:15.430Z,98468.64
2019-05-05T03:13:24.342Z,98463.89
2019-05-05T03:16:35.661Z,98464.59
2019-05-05T03:19:44.429Z,98459.63
2019-05-05T03:22:50.391Z,98468.94
2019-05-05T03:25:56.359Z,98463.29
2019-05-05T03:29:04.742Z,98476.02
2019-05-05T03:32:15.731Z,98489.69
2019-05-05T03:35:20.459Z,98477.23
2019-05-05T03:38:27.576Z,98466.52
2019-05-05T03:41:45.828Z,98471.88
2019-05-05T03:44:57.380Z,98472.78
2019-05-05T03:48:04.636Z,98464.16
2019-05-05T03:51:18.850Z,98465.20
2019-05-05T03:54:23.757Z,98465.42
2019-05-05T03:57:29.572Z,98460.31
2019-05-05T04:01:28.752Z,98463.98
2019-05-05T04:04:39.735Z,98478.96
2019-05-05T04:07:45.913Z,98486.11
2019-05-05T04:10:51.838Z,98482.69
2019-05-05T04:13:57.979Z,98490.17
2019-05-05T04:17:14.260Z,98481.91
2019-05-05T04:20:29.543Z,98482.92
2019-05-05T04:23:35.646Z,98481.89
2019-05-05T04:26:41.344Z,98481.08
2019-05-05T04:29:47.939Z,98484.82
2019-05-05T04:32:54.639Z,98490.09
2019-05-05T04:36:03.768Z,98502.23
2019-05-05T04:39:09.331Z,98517.10
2019-05-05T04:42:16.862Z,98534.20
2019-05-05T04:45:24.094Z,98547.86
2019-05-05T04:48:38.809Z,98550.38
2019-05-05T04:51:50.393Z,98541.41
2019-05-05T04:54:55.771Z,98563.46
2019-05-05T04:58:04.630Z,98568.97
2019-05-05T05:01:10.604Z,98571.54
2019-05-05T05:04:41.020Z,98567.69
2019-05-05T05:07:47.268Z,98561.33
2019-05-05T05:10:54.259Z,98547.64
2019-05-05T05:14:00.384Z,98534.71
2019-05-05T05:17:11.623Z,98518.52
2019-05-05T05:20:17.503Z,98520.14
2019-05-05T05:23:24.670Z,98515.65
2019-05-05T05:26:30.759Z,98509.70
2019-05-05T05:29:36.561Z,98511.22
2019-05-05T05:32:44.338Z,98511.22
2019-05-05T05:35:50.514Z,98506.03
2019-05-05T05:39:00.568Z,98510.09
2019-05-05T05:42:08.382Z,98515.37
2019-05-05T05:45:25.555Z,98513.56
2019-05-05T05:48:35.336Z,98525.58
2019-05-05T05:51:41.650Z,98510.19
2019-05-05T05:54:48.127Z,98485.86
2019-05-05T05:57:54.268Z,98504.44
2019-05-05T06:01:00.439Z,98507.19
2019-05-05T06:04:06.232Z,98515.42
2019-05-05T06:07:14.070Z,98514.53
2019-05-05T06:10:24.337Z,98542.59
2019-05-05T06:13:29.955Z,98532.39
2019-05-05T06:16:36.759Z,98515.73
2019-05-05T06:19:44.549Z,98529.66
2019-05-05T06:22:50.734Z,98542.48
2019-05-05T06:25:57.188Z,98551.84
2019-05-05T06:29:04.393Z,98547.92
2019-05-05T06:32:10.490Z,98539.89
2019-05-05T06:35:20.014Z,98529.86
2019-05-05T06:38:25.742Z,98522.97
2019-05-05T06:41:46.437Z,98559.09
2019-05-05T06:45:04.518Z,98585.48
2019-05-05T06:48:10.181Z,98579.00
2019-05-05T06:51:15.996Z,98574.03
2019-05-05T06:54:21.682Z,98556.82
2019-05-05T06:57:28.262Z,98545.42
2019-05-05T07:00:34.656Z,98531.03
2019-05-05T07:03:40.506Z,98524.94
2019-05-05T07:06:54.141Z,98528.62
2019-05-05T07:09:54.362Z,98527.12
2019-05-05T07:13:00.158Z,98527.12
2019-05-05T07:16:05.896Z,98527.50
2019-05-05T07:19:11.601Z,98533.18
2019-05-05T07:22:17.837Z,98523.98
2019-05-05T07:25:24.214Z,98540.27
2019-05-05T07:28:31.191Z,98551.83
2019-05-05T07:31:36.905Z,98536.11
2019-05-05T07:34:57.109Z,98554.27
2019-05-05T07:38:04.517Z,98566.28
2019-05-05T07:41:14.031Z,98563.53
2019-05-05T07:44:26.578Z,98552.19
2019-05-05T07:47:27.154Z,98548.84
2019-05-05T07:50:35.654Z,98557.66
2019-05-05T07:53:40.313Z,98550.63
2019-05-05T07:56:46.015Z,98542.27
2019-05-05T07:59:53.850Z,98529.42
2019-05-05T08:02:59.095Z,98528.39
2019-05-05T08:06:05.029Z,98528.52
2019-05-05T08:09:10.791Z,98513.86
2019-05-05T08:12:18.290Z,98518.28
2019-05-05T08:15:25.782Z,98523.34
2019-05-05T08:18:49.308Z,98524.47
2019-05-05T08:21:55.261Z,98520.02
2019-05-05T08:25:10.209Z,98540.45
2019-05-05T08:28:23.768Z,98541.94
2019-05-05T08:31:53.669Z,98529.41
2019-05-05T08:35:00.899Z,98523.77
2019-05-05T08:38:06.946Z,98512.32
2019-05-05T08:41:13.840Z,98513.34
2019-05-05T08:44:19.795Z,98525.02
2019-05-05T08:47:28.187Z,98512.39
2019-05-05T08:50:34.841Z,98515.35
2019-05-05T08:53:45.067Z,98508.63
2019-05-05T08:56:47.891Z,98498.23
2019-05-05T08:59:54.483Z,98488.02
2019-05-05T09:03:00.440Z,98493.80
2019-05-05T09:06:08.628Z,98494.11
2019-05-05T09:09:14.620Z,98493.34
2019-05-05T09:12:20.311Z,98498.52
2019-05-05T09:15:27.033Z,98493.28
2019-05-05T09:18:33.916Z,98494.36
2019-05-05T09:21:39.955Z,98483.84
2019-05-05T09:25:26.608Z,98487.61
2019-05-05T09:28:39.686Z,98477.17
2019-05-05T09:31:45.360Z,98464.09
2019-05-05T09:34:54.062Z,98451.02
2019-05-05T09:38:04.100Z,98443.38
2019-05-05T09:41:09.983Z,98453.16
2019-05-05T09:44:15.787Z,98457.14
2019-05-05T09:47:23.869Z,98467.47
2019-05-05T09:50:29.071Z,98455.61
2019-05-05T09:53:37.519Z,98439.70
2019-05-05T09:56:44.442Z,98431.37
2019-05-05T10:00:13.981Z,98422.46
2019-05-05T10:03:21.601Z,98423.63
2019-05-05T10:06:27.765Z,98425.84
2019-05-05T10:09:34.668Z,98412.47
2019-05-05T10:12:40.378Z,98410.27
2019-05-05T10:15:46.152Z,98420.49
2019-05-05T10:18:54.081Z,98435.47
2019-05-05T10:21:59.469Z,98427.74
2019-05-05T10:25:34.345Z,98422.14
2019-05-05T10:28:41.500Z,98428.56
2019-05-05T10:31:47.344Z,98430.45
2019-05-05T10:35:04.431Z,98434.72
2019-05-05T10:38:10.882Z,98434.98
2019-05-05T10:41:18.910Z,98423.40
2019-05-05T10:44:24.580Z,98406.29
2019-05-05T10:47:30.413Z,98397.75
2019-05-05T10:50:36.380Z,98403.99
2019-05-05T10:53:43.817Z,98393.05
2019-05-05T10:56:49.785Z,98399.17
2019-05-05T11:00:09.039Z,98389.30
2019-05-05T11:03:03.986Z,98384.23
2019-05-05T11:06:10.340Z,98362.84
2019-05-05T11:09:16.029Z,98354.80
2019-05-05T11:12:21.717Z,98359.81
2019-05-05T11:15:27.429Z,98373.50
2019-05-05T11:18:34.601Z,98377.91
2019-05-05T11:21:40.418Z,98375.95
2019-05-05T11:24:57.244Z,98372.52
2019-05-05T11:27:54.218Z,98363.08
2019-05-05T11:30:59.863Z,98369.48
2019-05-05T11:34:18.505Z,98366.83
2019-05-05T11:37:24.941Z,98358.25
2019-05-05T11:40:33.654Z,98364.43
2019-05-05T11:43:40.606Z,98362.52
2019-05-05T11:46:46.327Z,98365.49
2019-05-05T11:49:54.580Z,98358.84
2019-05-05T11:52:59.516Z,98360.97
2019-05-05T11:56:05.342Z,98364.15
2019-05-05T11:59:11.113Z,98344.68
2019-05-05T12:02:16.820Z,98343.58
2019-05-05T12:05:24.292Z,98336.39
2019-05-05T12:08:30.078Z,98334.75
2019-05-05T12:11:35.770Z,98332.00
2019-05-05T12:14:41.562Z,98331.20
2019-05-05T12:17:47.361Z,98326.67
2019-05-05T12:20:54.366Z,98320.53
2019-05-05T12:24:03.834Z,98322.14
2019-05-05T12:27:20.090Z,98308.64
2019-05-05T12:30:25.870Z,98295.05
2019-05-05T12:33:33.512Z,98303.60
2019-05-05T12:36:39.084Z,98308.06
2019-05-05T12:39:44.908Z,98304.51
2019-05-05T12:42:50.603Z,98289.59
2019-05-05T12:46:05.493Z,98290.38
2019-05-05T12:49:13.727Z,98297.84
2019-05-05T12:52:19.073Z,98305.74
2019-05-05T12:55:37.858Z,98309.09
2019-05-05T12:58:33.556Z,98308.09
2019-05-05T13:01:40.151Z,98304.52
2019-05-05T13:04:45.826Z,98303.88
2019-05-05T13:07:51.565Z,98303.52
2019-05-05T13:10:57.306Z,98307.03
2019-05-05T13:14:03.668Z,98307.84
2019-05-05T13:17:11.001Z,98303.55
2019-05-05T13:20:35.743Z,98330.89
2019-05-05T13:24:00.547Z,98313.92
2019-05-05T13:27:19.133Z,98320.70
2019-05-05T13:30:21.105Z,98335.51
2019-05-05T13:33:26.830Z,98327.08
2019-05-05T13:36:33.449Z,98323.50
2019-05-05T13:39:39.333Z,98319.36
2019-05-05T13:42:45.070Z,98316.59
2019-05-05T13:45:59.968Z,98320.83
2019-05-05T13:49:36.918Z,98322.52
2019-05-05T13:52:44.192Z,98315.41
2019-05-05T13:55:50.183Z,98330.39
2019-05-05T13:58:57.021Z,98314.66
2019-05-05T14:02:02.684Z,98311.00
2019-05-05T14:05:08.707Z,98312.11
2019-05-05T14:08:14.845Z,98319.37
2019-05-05T14:11:20.699Z,98320.45
2019-05-05T14:14:26.384Z,98315.64
2019-05-05T14:17:32.238Z,98307.05
2019-05-05T14:20:38.010Z,98314.48
2019-05-05T14:24:10.837Z,98317.95
2019-05-05T14:27:17.673Z,98307.27
2019-05-05T14:30:34.220Z,98316.83
2019-05-05T14:33:57.471Z,98321.08
2019-05-05T14:37:21.272Z,98322.24
2019-05-05T14:40:27.247Z,98331.47
2019-05-05T14:43:34.476Z,98325.47
2019-05-05T14:46:40.338Z,98338.21
2019-05-05T14:49:46.483Z,98340.67
2019-05-05T14:52:53.499Z,98342.02
2019-05-05T14:55:59.314Z,98347.39
2019-05-05T14:59:05.072Z,98342.33
2019-05-05T15:02:10.861Z,98342.54
2019-05-05T15:05:39.335Z,98351.83
2019-05-05T15:08:56.149Z,98350.69
2019-05-05T15:12:15.916Z,98339.41
2019-05-05T15:15:23.481Z,98342.30
2019-05-05T15:18:29.021Z,98340.05
2019-05-05T15:21:34.773Z,98343.52
2019-05-05T15:24:41.804Z,98321.59
2019-05-05T15:27:47.478Z,98325.20
2019-05-05T15:30:54.508Z,98335.64
2019-05-05T15:34:00.986Z,98328.58
2019-05-05T15:37:06.861Z,98328.58
2019-05-05T15:40:14.283Z,98333.32
2019-05-05T15:43:20.309Z,98322.65
2019-05-05T15:46:26.043Z,98316.58
2019-05-05T15:49:31.718Z,98308.14
2019-05-05T15:52:37.447Z,98297.91
2019-05-05T15:55:43.139Z,98297.56
2019-05-05T15:58:48.917Z,98296.38
2019-05-05T16:01:55.026Z,98296.20
2019-05-05T16:05:00.778Z,98300.07
2019-05-05T16:08:06.551Z,98306.64
2019-05-05T16:11:14.250Z,98308.36
2019-05-05T16:14:20.325Z,98306.72
2019-05-05T16:17:33.417Z,98299.76
2019-05-05T16:20:44.325Z,98293.47
2019-05-05T16:23:54.423Z,98291.91
2019-05-05T16:27:01.131Z,98287.25
2019-05-05T16:30:07.803Z,98284.27
2019-05-05T16:33:15.036Z,98288.34
2019-05-05T16:36:21.555Z,98286.37
2019-05-05T16:39:29.196Z,98293.01
2019-05-05T16:42:54.317Z,98298.19
2019-05-05T16:46:00.294Z,98298.40
2019-05-05T16:49:06.103Z,98301.09
2019-05-05T16:52:18.184Z,98288.70
2019-05-05T16:55:37.794Z,98287.20
2019-05-05T16:58:45.058Z,98288.33
2019-05-05T17:01:51.045Z,98300.44
2019-05-05T17:04:56.705Z,98302.28
2019-05-05T17:08:04.356Z,98309.78
2019-05-05T17:11:09.875Z,98308.19
2019-05-05T17:14:23.435Z,98314.18
2019-05-05T17:17:45.471Z,98296.92
2019-05-05T17:20:57.742Z,98292.28
2019-05-05T17:24:03.467Z,98286.80
2019-05-05T17:27:09.191Z,98291.61
2019-05-05T17:30:15.177Z,98288.91
2019-05-05T17:33:21.056Z,98285.03
2019-05-05T17:36:26.767Z,98282.08
2019-05-05T17:39:35.043Z,98286.08
2019-05-05T17:43:02.576Z,98301.73
2019-05-05T17:46:20.943Z,98303.75
2019-05-05T17:49:44.422Z,98317.33
2019-05-05T17:53:04.906Z,98327.57
2019-05-05T17:56:11.093Z,98318.77
2019-05-05T17:59:17.769Z,98323.39
2019-05-05T18:02:23.691Z,98326.25
2019-05-05T18:05:47.042Z,98326.59
2019-05-05T18:08:56.644Z,98320.80
2019-05-05T18:12:23.486Z,98325.83
2019-05-05T18:15:48.273Z,98334.07
2019-05-05T18:18:54.847Z,98328.98
2019-05-05T18:22:00.776Z,98333.77
2019-05-05T18:25:06.680Z,98328.78
2019-05-05T18:28:19.468Z,98327.41
2019-05-05T18:31:19.848Z,98336.67
2019-05-05T18:34:25.515Z,98336.20
2019-05-05T18:37:31.425Z,98335.47
2019-05-05T18:40:37.367Z,98336.44
2019-05-05T18:43:51.462Z,98335.30
2019-05-05T18:47:15.725Z,98337.24
2019-05-05T18:50:19.419Z,98352.13
2019-05-05T18:53:25.176Z,98359.63
2019-05-05T18:56:30.883Z,98347.13
2019-05-05T18:59:36.938Z,98353.82
2019-05-05T19:03:01.603Z,98347.32
2019-05-05T19:06:26.154Z,98353.45
2019-05-05T19:09:33.885Z,98360.63
2019-05-05T19:12:39.412Z,98360.36
2019-05-05T19:15:45.507Z,98367.66
2019-05-05T19:18:51.272Z,98372.06
2019-05-05T19:22:00.925Z,98373.38
2019-05-05T19:25:15.972Z,98370.95
2019-05-05T19:28:23.563Z,98380.30
2019-05-05T19:31:32.040Z,98379.27
2019-05-05T19:34:37.154Z,98386.97
2019-05-05T19:37:44.516Z,98381.77
2019-05-05T19:40:50.428Z,98370.73
2019-05-05T19:43:56.177Z,98368.02
2019-05-05T19:47:13.978Z,98371.13
2019-05-05T19:50:24.465Z,98366.30
2019-05-05T19:53:30.319Z,98371.41
2019-05-05T19:56:36.180Z,98373.09
2019-05-05T19:59:41.914Z,98370.11
2019-05-05T20:03:04.366Z,98370.05
2019-05-05T20:06:04.801Z,98372.97
2019-05-05T20:09:13.919Z,98375.27
2019-05-05T20:12:19.255Z,98373.25
2019-05-05T20:15:34.129Z,98374.90
2019-05-05T20:18:39.873Z,98373.30
2019-05-05T20:21:46.047Z,98368.75
2019-05-05T20:24:51.873Z,98365.64
2019-05-05T20:27:57.609Z,98364.29
2019-05-05T20:31:03.762Z,98367.27
2019-05-05T20:34:34.450Z,98375.59
2019-05-05T20:37:54.112Z,98374.00
2019-05-05T20:41:31.344Z,98376.17
2019-05-05T20:44:37.313Z,98361.95
2019-05-05T20:47:43.975Z,98356.75
2019-05-05T20:50:49.941Z,98355.05
2019-05-05T20:53:55.746Z,98354.86
2019-05-05T20:57:01.591Z,98357.28
2019-05-05T21:00:09.497Z,98357.41
2019-05-05T21:03:16.736Z,98358.73
2019-05-05T21:06:24.442Z,98358.97
2019-05-05T21:09:29.961Z,98360.73
2019-05-05T21:12:42.248Z,98363.23
2019-05-05T21:15:45.064Z,98362.73
2019-05-05T21:18:50.912Z,98366.41
2019-05-05T21:21:58.395Z,98369.63
2019-05-05T21:25:04.953Z,98381.34
2019-05-05T21:28:10.798Z,98383.69
2019-05-05T21:31:16.525Z,98376.63
2019-05-05T21:34:24.628Z,98375.55
2019-05-05T21:37:29.582Z,98374.77
2019-05-05T21:40:35.298Z,98381.00
2019-05-05T21:43:41.047Z,98374.70
2019-05-05T21:46:46.723Z,98366.48
2019-05-05T21:49:54.272Z,98375.03
2019-05-05T21:53:08.549Z,98368.00
2019-05-05T21:56:51.200Z,98376.77
2019-05-05T21:59:58.906Z,98373.44
2019-05-05T22:03:04.728Z,98375.53
2019-05-05T22:06:10.508Z,98374.86
2019-05-05T22:09:16.184Z,98369.23
2019-05-05T22:12:24.135Z,98370.91
2019-05-05T22:15:29.483Z,98366.58
2019-05-05T22:18:35.293Z,98366.48
2019-05-05T22:21:45.375Z,98363.64
2019-05-05T22:24:51.024Z,98372.70
2019-05-05T22:27:56.752Z,98372.41
2019-05-05T22:31:04.440Z,98369.91
2019-05-05T22:34:10.085Z,98374.59
2019-05-05T22:37:15.796Z,98372.84
2019-05-05T22:40:24.336Z,98376.52
2019-05-05T22:43:30.450Z,98374.78
2019-05-05T22:46:36.139Z,98366.56
2019-05-05T22:49:44.180Z,98378.11
2019-05-05T22:52:49.359Z,98369.30
2019-05-05T22:55:55.129Z,98368.11
2019-05-05T22:59:04.110Z,98365.92
2019-05-05T23:02:09.582Z,98358.77
2019-05-05T23:05:28.054Z,98362.91
2019-05-05T23:08:35.098Z,98362.91
2019-05-05T23:11:41.122Z,98369.74
2019-05-05T23:14:46.838Z,98365.85
2019-05-05T23:18:09.560Z,98364.42
2019-05-05T23:21:24.877Z,98358.31
2019-05-05T23:24:58.787Z,98368.27
2019-05-05T23:28:05.594Z,98366.47
2019-05-05T23:31:11.485Z,98362.09
2019-05-05T23:34:17.226Z,98365.11
2019-05-05T23:37:24.580Z,98367.72
2019-05-05T23:40:30.713Z,98378.32
2019-05-05T23:43:36.521Z,98374.20
2019-05-05T23:46:42.234Z,98370.41
2019-05-05T23:49:47.934Z,98377.08
2019-05-05T23:52:54.415Z,98375.22
2019-05-05T23:56:00.495Z,98371.63
2019-05-05T23:59:07.321Z,98377.45
